Latest Weather Observations for Yeppoon

IDQ60801

Issued at 5:05 pm EST Thursday 31 July 2014 (issued every 30 minutes, with the page automatically refreshed every 10 minutes)

About weather observations | Map of weather stations | Latest weather observations for QLD | Other Formats
Station Details ID: 033294 Name: YEPPOON THE ESPLANADE Lat: -23.14 Lon: 150.75 Height: 5.5 m
Data from the previous 72 hours. | See also: Recent months at Yeppoon
Date/Time
EST
Temp
°C
App
Temp
°C
Dew
Point
Rel
Hum
%
Delta-T
°C
Wind Press
QNH
hPa
Press
MSL
hPa
Rain
since 9 am
mm
Dir
 
Spd
km/h
Gust
km/h
Spd
kts
Gust
kts
31/05:00pm 20.0 21.2 18.2 89 1.1 NE 9 11 5 6 1017.6 1017.6 0.0
31/04:30pm 20.4 21.9 18.1 87 1.4 E 7 9 4 5 1017.4 - 0.0
31/04:00pm 20.5 21.5 17.7 84 1.7 ENE 9 13 5 7 1017.4 1017.4 0.0
31/03:30pm 20.5 21.0 17.4 82 1.9 ENE 11 17 6 9 1017.4 - 0.0
31/03:00pm 20.8 21.1 17.9 83 1.8 ENE 13 17 7 9 1017.4 1017.4 0.0
31/02:30pm 21.3 22.3 17.7 80 2.2 NE 9 11 5 6 1017.5 - 0.0
31/02:00pm 21.6 22.5 17.5 77 2.5 ENE 9 13 5 7 1017.8 1017.8 0.0
31/01:30pm 21.9 22.7 17.2 74 2.9 E 9 13 5 7 1018.1 - 0.0
31/01:00pm 21.7 21.5 16.8 73 3.0 E 13 17 7 9 1018.6 1018.6 0.0
31/12:30pm 22.6 22.9 17.1 71 3.4 E 11 13 6 7 1019.1 - 0.0
31/12:00pm 22.6 22.8 16.7 69 3.6 E 11 15 6 8 1019.7 1019.7 0.0
31/11:30am 22.0 21.2 16.2 69 3.5 E 15 17 8 9 1020.2 - 0.0
31/11:00am 21.8 21.4 16.3 71 3.3 E 13 17 7 9 1020.8 1020.8 0.0
31/10:30am 21.2 20.3 15.8 71 3.2 E 15 19 8 10 1021.2 - 0.0
31/10:00am 21.2 20.6 15.7 71 3.3 E 13 17 7 9 1021.4 1021.4 0.0
31/09:30am 20.2 20.8 15.8 76 2.6 S 7 11 4 6 1021.4 - 0.0
31/09:00am 18.8 19.4 15.7 82 1.8 SSW 7 11 4 6 1021.4 1021.4 0.0
31/08:30am 17.5 18.0 15.6 89 1.1 SSW 7 13 4 7 1021.5 - 0.0
31/08:00am 16.5 16.8 15.1 91 0.8 SW 7 11 4 6 1021.3 1021.3 0.0
31/07:30am 15.5 15.3 14.8 96 0.4 SW 9 11 5 6 1021.0 - 0.0
31/07:00am 14.9 15.2 14.4 97 0.3 WSW 6 9 3 5 1020.8 1020.8 0.0
31/06:30am 14.4 13.9 13.9 97 0.3 W 9 13 5 7 1020.7 - 0.0
31/06:00am 13.9 13.3 13.4 97 0.3 W 9 13 5 7 1020.3 1020.3 0.0
31/05:30am 13.7 12.6 13.2 97 0.3 W 11 15 6 8 1020.1 - 0.0
31/05:00am 13.4 12.6 12.8 96 0.3 W 9 11 5 6 1019.9 1019.9 0.0
31/04:30am 13.7 12.6 13.2 97 0.3 W 11 13 6 7 1019.9 - 0.0
31/04:00am 13.7 13.4 13.2 97 0.3 W 7 9 4 5 1019.9 1019.9 0.0
31/03:30am 13.8 13.4 13.1 96 0.4 W 7 9 4 5 1019.9 - 0.0
31/03:00am 13.8 13.4 13.1 96 0.4 W 7 11 4 6 1020.0 1020.0 0.0
31/02:30am 13.3 13.0 12.7 96 0.3 W 6 9 3 5 1020.1 - 0.0
31/02:00am 14.4 14.4 14.2 99 0.1 W 7 9 4 5 1020.3 1020.3 0.0
31/01:30am 14.4 14.0 14.2 99 0.1 W 9 11 5 6 1020.7 - 0.0
31/01:00am 14.1 13.1 13.4 96 0.4 W 11 15 6 8 1020.8 1020.8 0.0
31/12:30am 13.7 12.2 13.2 97 0.3 W 13 13 7 7 1020.9 - 0.0
31/12:00am 13.4 12.5 12.5 94 0.5 W 9 11 5 6 1020.9 1020.9 0.0
 
Date/Time
EST
Temp
°C
App
Temp
°C
Dew
Point
Rel
Hum
%
Delta-T
°C
Wind Press
QNH
hPa
Press
MSL
hPa
Rain
since 9 am
mm
Dir
 
Spd
km/h
Gust
km/h
Spd
kts
Gust
kts
30/11:30pm 13.9 13.2 13.2 96 0.4 W 9 11 5 6 1021.1 - 0.0
30/11:00pm 14.1 13.1 13.4 96 0.4 W 11 13 6 7 1021.2 1021.2 0.0
30/10:30pm 13.9 13.1 13.0 94 0.5 W 9 11 5 6 1021.2 - 0.0
30/10:00pm 14.5 14.4 13.8 96 0.4 W 7 11 4 6 1021.3 1021.3 0.0
30/09:30pm 14.6 14.4 13.7 94 0.5 W 7 9 4 5 1021.5 - 0.0
30/09:00pm 15.0 15.1 13.9 93 0.6 W 6 7 3 4 1021.5 1021.5 0.0
30/08:30pm 15.4 15.6 14.3 93 0.6 WSW 6 9 3 5 1021.3 - 0.0
30/08:00pm 15.9 16.3 14.7 93 0.7 SW 6 7 3 4 1021.2 1021.2 0.0
30/07:30pm 16.1 16.5 14.7 91 0.8 SSW 6 9 3 5 1021.0 - 0.0
30/07:00pm 17.1 18.0 15.0 87 1.2 ESE 4 7 2 4 1020.8 1020.8 0.0
30/06:30pm 18.9 20.0 16.6 86 1.4 ENE 6 9 3 5 1020.4 - 0.0
30/06:00pm 19.2 19.5 16.0 82 1.9 ENE 9 11 5 6 1020.1 1020.1 0.0
30/05:30pm 19.4 19.6 15.7 79 2.2 ENE 9 11 5 6 1019.9 - 0.0
30/05:00pm 19.8 19.6 15.6 77 2.5 ENE 11 17 6 9 1019.8 1019.8 0.0
30/04:30pm 20.1 19.7 15.3 74 2.8 ENE 11 17 6 9 1019.9 - 0.0
30/04:00pm 20.7 20.3 15.3 71 3.2 E 11 15 6 8 1019.9 1019.9 0.0
30/03:30pm 21.3 21.2 16.0 72 3.2 ENE 11 17 6 9 1019.7 - 0.0
30/03:00pm 21.9 21.3 15.7 68 3.7 ENE 13 17 7 9 1019.7 1019.7 0.0
30/02:30pm 22.4 22.3 15.0 63 4.4 ENE 9 13 5 7 1019.8 - 0.0
30/02:00pm 22.2 22.0 13.7 58 4.9 ENE 7 9 4 5 1019.9 1019.9 0.0
30/01:30pm 22.2 22.6 15.3 65 4.1 ENE 7 9 4 5 1020.4 - 0.0
30/01:00pm 22.6 23.2 15.9 66 4.0 ENE 7 9 4 5 1020.8 1020.8 0.0
30/12:30pm 22.3 22.5 14.6 61 4.5 E 7 11 4 6 1021.5 - 0.0
30/12:00pm 22.2 21.3 13.7 58 4.9 E 11 15 6 8 1022.2 1022.2 0.0
30/11:30am 21.7 20.9 13.9 61 4.5 E 11 15 6 8 1022.7 - 0.0
30/11:00am 21.7 21.6 14.9 65 4.0 E 9 13 5 7 1023.0 1023.0 0.0
30/10:30am 21.1 20.6 15.0 68 3.6 E 11 13 6 7 1023.5 - 0.0
30/10:00am 20.7 20.6 13.9 65 3.9 ENE 7 9 4 5 1023.8 1023.8 0.0
30/09:30am 20.4 20.5 14.0 66 3.7 ENE 6 6 3 3 1024.1 - 0.0
30/09:00am 18.2 19.5 14.0 76 2.4 CALM 0 2 0 1 1024.0 1024.0 0.2
30/08:30am 16.2 16.0 13.5 84 1.5 W 7 9 4 5 1023.9 - 0.2
30/08:00am 14.2 13.2 12.3 88 1.0 W 9 11 5 6 1023.8 1023.8 0.2
30/07:30am 12.1 10.3 10.7 91 0.7 W 11 15 6 8 1023.5 - 0.2
30/07:00am 10.8 8.4 10.0 95 0.4 W 13 15 7 8 1023.1 1023.1 0.2
30/06:30am 10.3 8.6 9.7 96 0.3 W 9 13 5 7 1022.7 - 0.2
30/06:00am 10.4 8.6 9.6 95 0.4 W 9 11 5 6 1022.3 1022.3 0.2
30/05:30am 10.8 9.1 9.8 93 0.5 W 9 11 5 6 1022.0 - 0.2
30/05:00am 11.4 9.5 10.6 95 0.4 W 11 13 6 7 1021.9 1021.9 0.2
30/04:30am 11.3 9.4 10.5 95 0.4 W 11 13 6 7 1021.7 - 0.0
30/04:00am 10.9 8.9 10.1 95 0.4 W 11 15 6 8 1021.5 1021.5 0.0
30/03:30am 10.9 8.5 10.1 95 0.4 W 13 15 7 8 1021.5 - 0.0
30/03:00am 11.5 10.0 10.5 94 0.5 W 9 11 5 6 1021.5 1021.5 0.0
30/02:30am 11.7 9.9 10.7 94 0.5 W 11 13 6 7 1021.6 - 0.0
30/02:00am 12.4 11.1 11.3 93 0.6 W 9 15 5 8 1021.7 1021.7 0.0
30/01:30am 12.5 10.9 11.6 94 0.5 W 11 15 6 8 1021.8 - 0.0
30/01:00am 12.6 10.7 11.7 94 0.5 W 13 15 7 8 1021.8 1021.8 0.0
30/12:30am 13.1 11.6 11.8 92 0.7 W 11 15 6 8 1022.1 - 0.0
30/12:00am 13.3 11.8 12.0 92 0.7 W 11 13 6 7 1022.1 1022.1 0.0
 
Date/Time
EST
Temp
°C
App
Temp
°C
Dew
Point
Rel
Hum
%
Delta-T
°C
Wind Press
QNH
hPa
Press
MSL
hPa
Rain
since 9 am
mm
Dir
 
Spd
km/h
Gust
km/h
Spd
kts
Gust
kts
29/11:30pm 13.2 12.1 12.1 93 0.6 W 9 13 5 7 1022.0 - 0.0
29/11:00pm 13.4 13.0 12.5 94 0.5 SW 6 7 3 4 1022.0 1022.0 0.0
29/10:30pm 13.6 13.3 12.7 94 0.5 SSW 6 7 3 4 1022.0 - 0.0
29/10:00pm 13.9 13.6 12.8 93 0.6 SSW 6 9 3 5 1022.1 1022.1 0.0
29/09:30pm 14.0 13.6 12.9 93 0.6 SSW 7 9 4 5 1022.0 - 0.0
29/09:00pm 14.9 15.6 13.3 90 0.9 S 2 6 1 3 1021.6 1021.6 0.0
29/08:30pm 16.0 15.6 14.2 89 1.0 N 9 11 5 6 1021.6 - 0.0
29/08:00pm 17.0 16.7 14.4 85 1.5 N 9 11 5 6 1021.8 1021.8 0.0
29/07:30pm 18.3 18.3 15.2 82 1.8 N 9 13 5 7 1021.7 - 0.0
29/07:00pm 18.6 17.8 15.2 80 2.0 N 13 17 7 9 1021.3 1021.3 0.0
29/06:30pm 18.7 18.2 14.9 78 2.2 N 11 15 6 8 1021.1 - 0.0
29/06:00pm 19.0 18.6 15.1 78 2.3 N 11 15 6 8 1020.9 1020.9 0.0
29/05:30pm 19.5 18.0 15.4 77 2.4 NNE 17 20 9 11 1020.5 - 0.0
29/05:00pm 19.8 17.9 15.2 75 2.7 NNE 19 22 10 12 1020.3 1020.3 0.0
29/04:30pm 20.2 18.3 15.3 73 2.9 NNE 19 20 10 11 1020.2 - 0.0
29/04:00pm 20.5 19.3 15.1 71 3.2 NNE 15 17 8 9 1020.2 1020.2 0.0
29/03:30pm 21.2 20.2 14.5 65 3.9 NNE 13 17 7 9 1020.3 - 0.0
29/03:00pm 21.6 21.5 15.0 66 3.9 NE 9 11 5 6 1020.4 1020.4 0.0
29/02:30pm 22.2 22.3 15.5 66 4.0 NE 9 13 5 7 1020.6 - 0.0
29/02:00pm 22.1 22.2 15.4 65 4.0 NE 9 13 5 7 1020.7 1020.7 0.0
29/01:30pm 22.0 22.1 15.4 66 3.9 ENE 9 11 5 6 1021.0 - 0.0
29/01:00pm 22.4 22.8 15.3 64 4.2 ENE 7 9 4 5 1021.4 1021.4 0.0
29/12:30pm 22.2 22.7 15.1 64 4.2 ENE 6 7 3 4 1021.8 - 0.0
29/12:00pm 22.4 23.0 15.3 64 4.2 ENE 6 7 3 4 1022.2 1022.2 0.0
29/11:30am 21.9 22.6 15.7 68 3.7 ENE 6 9 3 5 1022.8 - 0.0
29/11:00am 21.7 22.6 16.0 70 3.4 ENE 6 9 3 5 1023.2 1023.2 0.0
29/10:30am 21.3 22.2 16.1 72 3.1 ENE 6 9 3 5 1023.6 - 0.0
29/10:00am 20.3 20.4 15.4 73 2.9 E 9 11 5 6 1023.9 1023.9 0.0
29/09:30am 19.8 21.1 15.2 75 2.7 WNW 2 6 1 3 1024.1 - 0.0
29/09:00am 16.9 17.1 14.6 86 1.3 W 7 9 4 5 1024.2 1024.2 0.2
29/08:30am 14.8 14.2 13.4 91 0.8 W 9 13 5 7 1024.1 - 0.2
29/08:00am 13.0 11.5 11.9 93 0.6 W 11 13 6 7 1024.0 1024.0 0.2
29/07:30am 11.7 10.3 10.9 95 0.4 WSW 9 13 5 7 1023.8 - 0.2
29/07:00am 11.2 9.8 10.8 97 0.2 WSW 9 11 5 6 1023.4 1023.4 0.2
29/06:30am 10.7 8.4 10.3 97 0.2 W 13 15 7 8 1023.0 - 0.2
29/06:00am 11.0 9.1 10.6 97 0.2 W 11 13 6 7 1022.8 1022.8 0.2
29/05:30am 11.4 9.6 11.0 97 0.2 W 11 15 6 8 1022.5 - 0.2
29/05:00am 11.5 9.8 11.1 97 0.2 W 11 13 6 7 1022.2 1022.2 0.2
29/04:30am 11.4 9.3 11.0 97 0.2 W 13 15 7 8 1021.9 - 0.2
29/04:00am 11.7 10.4 11.3 97 0.2 W 9 11 5 6 1021.6 1021.6 0.2
29/03:30am 12.6 11.6 12.2 97 0.2 W 9 13 5 7 1021.3 - 0.2
29/03:00am 11.9 10.6 11.3 96 0.3 W 9 13 5 7 1021.3 1021.3 0.2
29/02:30am 12.3 11.8 11.9 97 0.2 W 6 7 3 4 1021.4 - 0.0
29/02:00am 12.8 11.8 12.2 96 0.3 W 9 11 5 6 1021.4 1021.4 0.0
29/01:30am 13.1 11.8 12.5 96 0.3 W 11 13 6 7 1021.6 - 0.0
29/01:00am 14.0 13.0 13.5 97 0.3 W 11 13 6 7 1021.8 1021.8 0.0
29/12:30am 14.2 13.7 13.8 97 0.2 W 9 11 5 6 1021.9 - 0.0
29/12:00am 14.3 13.8 13.9 97 0.2 W 9 13 5 7 1022.2 1022.2 0.0
 
Date/Time
EST
Temp
°C
App
Temp
°C
Dew
Point
Rel
Hum
%
Delta-T
°C
Wind Press
QNH
hPa
Press
MSL
hPa
Rain
since 9 am
mm
Dir
 
Spd
km/h
Gust
km/h
Spd
kts
Gust
kts
28/11:30pm 14.1 13.5 13.4 96 0.4 W 9 13 5 7 1022.2 - 0.0
28/11:00pm 14.6 14.6 14.1 97 0.3 W 7 11 4 6 1022.2 1022.2 0.0
28/10:30pm 14.7 14.8 14.0 96 0.4 SW 6 7 3 4 1022.2 - 0.0
28/10:00pm 15.0 15.2 14.3 96 0.4 SW 6 7 3 4 1022.2 1022.2 0.0
28/09:30pm 15.4 15.8 14.7 96 0.4 SW 6 7 3 4 1022.0 - 0.0
28/09:00pm 15.7 16.2 15.0 96 0.4 SSW 6 7 3 4 1021.9 1021.9 0.0
28/08:30pm 16.2 17.1 15.0 93 0.7 SSE 4 7 2 4 1021.8 - 0.0
28/08:00pm 17.8 18.6 15.9 89 1.1 NNE 6 7 3 4 1021.6 1021.6 0.0
28/07:30pm 19.2 19.5 17.0 87 1.3 N 11 13 6 7 1021.5 - 0.0
28/07:00pm 19.4 19.9 17.4 88 1.2 NNE 11 15 6 8 1021.2 1021.2 0.0
28/06:30pm 19.5 19.6 17.4 88 1.3 NNE 13 17 7 9 1020.9 - 0.0
28/06:00pm 19.5 18.7 17.2 86 1.4 NNE 17 19 9 10 1020.6 1020.6 0.0
28/05:30pm 19.7 18.9 16.0 79 2.2 NNE 15 19 8 10 1020.4 - 0.0

Other Formats:

Comma delimited format used in spreadsheet applications
http://www.bom.gov.au/fwo/IDQ60801/IDQ60801.94373.axf

JavaScript Object Notation format (JSON) in row-major order
http://www.bom.gov.au/fwo/IDQ60801/IDQ60801.94373.json